Time;durP1;ratioP1;P1;durP2;ratioP2;P2;SDS_P1;SDS_P2;PMS_P1;PMS_P2;Temp;Humidity;BMP_temperature;BMP_pressure;BME280_temperature;BME280_humidity;BME280_pressure;Samples;Min_cycle;Max_cycle;Signal;HPM_P1;HPM_P2
2023/12/20 00:02:12;;;;;;;1.93;1.83;;;;;;;-143.84;87.14;45199.50;5051674;28;20535;-59
2023/12/20 00:04:39;;;;;;;2.63;2.00;;;;;;;-143.84;87.23;45146.19;5051693;28;20847;-59
2023/12/20 00:07:06;;;;;;;3.87;2.10;;;;;;;-143.84;86.84;45167.13;5051569;28;20453;-59
2023/12/20 00:09:33;;;;;;;1.63;1.07;;;;;;;-143.84;86.57;45180.47;5050212;28;20463;-59
2023/12/20 00:12:00;;;;;;;1.77;1.67;;;;;;;-143.84;85.94;45191.88;5051220;28;20441;-59
2023/12/20 00:14:27;;;;;;;1.47;1.10;;;;;;;-143.84;84.95;45193.78;5051340;28;20470;-59
2023/12/20 00:16:55;;;;;;;1.10;1.00;;;;;;;-143.84;84.47;45163.31;5051568;28;20523;-59
2023/12/20 00:19:23;;;;;;;1.67;1.43;;;;;;;-143.84;84.11;45146.19;5051302;28;20493;-59
2023/12/20 00:21:51;;;;;;;1.27;0.80;;;;;;;-143.84;82.66;45167.13;5051314;28;20563;-58
2023/12/20 00:24:18;;;;;;;0.80;0.47;;;;;;;-143.84;81.05;45186.16;5051156;28;20442;-59
2023/12/20 00:26:45;;;;;;;0.90;0.70;;;;;;;-143.84;80.77;45180.47;5050953;28;20477;-59
2023/12/20 00:29:12;;;;;;;1.37;0.93;;;;;;;-143.84;79.96;45163.31;5050826;28;21101;-59
2023/12/20 00:31:39;;;;;;;1.20;1.10;;;;;;;-143.84;79.90;45186.16;5050867;28;20442;-59
2023/12/20 00:34:06;;;;;;;2.40;0.77;;;;;;;-143.84;79.59;45176.66;5051170;28;20931;-59
2023/12/20 00:36:34;;;;;;;0.90;0.80;;;;;;;-143.84;79.30;45157.59;5050849;28;20438;-59
2023/12/20 00:39:02;;;;;;;0.90;0.63;;;;;;;-143.84;79.11;45197.59;5050984;28;20495;-59
2023/12/20 00:41:29;;;;;;;1.17;1.07;;;;;;;-143.84;78.23;45180.47;5050824;28;20548;-59
2023/12/20 00:43:56;;;;;;;1.93;1.57;;;;;;;-143.84;77.88;45180.47;5050467;28;20437;-59
2023/12/20 00:46:23;;;;;;;2.10;1.37;;;;;;;-143.84;78.36;45176.66;5050797;28;20486;-59
2023/12/20 00:48:50;;;;;;;2.47;2.37;;;;;;;-143.84;78.49;45191.88;5050709;28;20506;-59
2023/12/20 00:51:18;;;;;;;0.90;0.60;;;;;;;-143.84;78.63;45167.13;5050613;28;20514;-59
2023/12/20 00:53:49;;;;;;;1.33;0.97;;;;;;;-143.84;78.63;45167.13;5050476;28;20864;-59
2023/12/20 00:56:16;;;;;;;1.40;0.80;;;;;;;-143.84;79.19;45169.03;5050675;28;20449;-59
2023/12/20 00:58:43;;;;;;;5.50;1.70;;;;;;;-143.84;78.99;45163.31;5050387;28;21145;-59
2023/12/20 01:01:10;;;;;;;1.43;1.33;;;;;;;-143.84;79.08;45169.03;5050753;28;20434;-59
2023/12/20 01:03:37;;;;;;;1.57;1.27;;;;;;;-143.84;78.86;45169.03;5050327;28;20445;-59
2023/12/20 01:06:05;;;;;;;1.43;1.10;;;;;;;-143.84;78.62;45170.94;5050461;28;20489;-59
2023/12/20 01:08:34;;;;;;;0.90;0.70;;;;;;;-143.84;78.40;45186.16;5050322;28;20444;-59
2023/12/20 01:11:05;;;;;;;1.10;1.00;;;;;;;-143.84;78.06;45144.28;5049970;28;20503;-59
2023/12/20 01:13:32;;;;;;;0.90;0.80;;;;;;;-143.84;78.41;45188.06;5050522;28;20450;-59
2023/12/20 01:15:59;;;;;;;0.80;0.47;;;;;;;-143.84;78.40;45170.94;5050131;28;20460;-59
2023/12/20 01:18:26;;;;;;;1.00;0.90;;;;;;;-143.84;78.20;45167.13;5050099;28;20444;-59
2023/12/20 01:20:53;;;;;;;0.80;0.50;;;;;;;-143.84;78.20;45201.41;5049472;28;20869;-59
2023/12/20 01:23:20;;;;;;;0.90;0.70;;;;;;;-143.84;77.74;45186.16;5049863;28;20437;-59
2023/12/20 01:25:47;;;;;;;0.80;0.57;;;;;;;-143.84;77.39;45178.56;5049864;28;21067;-59
2023/12/20 01:28:16;;;;;;;4.50;1.27;;;;;;;-143.84;76.97;45150.00;5050157;28;20454;-59
2023/12/20 01:30:43;;;;;;;2.10;1.80;;;;;;;-143.84;76.64;45161.41;5050198;28;20509;-59
2023/12/20 01:33:10;;;;;;;0.80;0.50;;;;;;;-143.84;76.66;45170.94;5049790;28;20499;-59
2023/12/20 01:35:37;;;;;;;1.67;1.00;;;;;;;-143.84;76.49;45170.94;5049769;28;20935;-59
2023/12/20 01:38:05;;;;;;;0.90;0.80;;;;;;;-143.84;76.10;45184.25;5049596;28;20461;-59
2023/12/20 01:40:32;;;;;;;0.80;0.50;;;;;;;-143.84;75.81;45178.56;5049987;28;20923;-58
2023/12/20 01:43:00;;;;;;;0.80;0.50;;;;;;;-143.84;75.62;45178.56;5049613;28;20445;-59
2023/12/20 01:45:28;;;;;;;0.90;0.70;;;;;;;-143.84;74.69;45195.69;5049652;28;20441;-59
2023/12/20 01:47:57;;;;;;;1.53;1.40;;;;;;;-143.84;74.81;45174.75;5049678;28;20576;-59
2023/12/20 01:50:24;;;;;;;2.03;1.43;;;;;;;-143.84;74.55;45184.25;5049464;28;20450;-59
2023/12/20 01:52:55;;;;;;;0.80;0.47;;;;;;;-143.84;74.27;45197.59;5049475;28;20496;-59
2023/12/20 01:55:23;;;;;;;1.00;0.90;;;;;;;-143.84;73.79;45174.75;5049057;28;20485;-59
2023/12/20 01:57:50;;;;;;;2.10;1.03;;;;;;;-143.84;73.09;45174.75;5049583;28;20497;-59
2023/12/20 02:00:22;;;;;;;0.80;0.50;;;;;;;-143.84;72.42;45153.81;5049661;28;20446;-59
2023/12/20 02:02:54;;;;;;;0.80;0.50;;;;;;;-143.84;72.21;45174.75;5048219;28;20442;-59
2023/12/20 02:05:22;;;;;;;1.40;1.30;;;;;;;-143.84;72.19;45180.47;5047996;28;20896;-59
2023/12/20 02:07:49;;;;;;;0.80;0.50;;;;;;;-143.84;72.53;45180.47;5048830;28;21035;-59
2023/12/20 02:10:17;;;;;;;0.80;0.40;;;;;;;-143.84;72.32;45174.75;5048102;28;20480;-59
2023/12/20 02:12:44;;;;;;;1.20;1.00;;;;;;;-143.84;72.48;45186.16;5048220;28;20438;-59
2023/12/20 02:15:10;;;;;;;2.23;0.80;;;;;;;-143.84;72.89;45172.84;5048717;28;20511;-59
2023/12/20 02:17:37;;;;;;;0.80;0.50;;;;;;;-143.84;71.31;45161.41;5048973;28;20453;-59
2023/12/20 02:20:07;;;;;;;0.80;0.40;;;;;;;-143.84;69.94;45167.13;5048872;28;20499;-59
2023/12/20 02:22:36;;;;;;;0.87;0.67;;;;;;;-143.84;69.25;45201.41;5049033;28;20446;-59
2023/12/20 02:25:03;;;;;;;1.20;0.90;;;;;;;-143.84;68.68;45199.50;5048748;28;20525;-59
2023/12/20 02:27:31;;;;;;;1.00;0.87;;;;;;;-143.84;68.52;45178.56;5048789;28;20998;-59
2023/12/20 02:29:58;;;;;;;0.90;0.60;;;;;;;-143.84;68.57;45174.75;5048613;28;20503;-59
2023/12/20 02:32:27;;;;;;;0.90;0.70;;;;;;;-143.84;67.94;45184.25;5048126;28;20876;-59
2023/12/20 02:34:55;;;;;;;0.80;0.50;;;;;;;-143.84;63.85;45150.00;5048842;28;20434;-59
2023/12/20 02:37:22;;;;;;;0.80;0.47;;;;;;;-143.84;60.40;45170.94;5048896;28;20449;-59
2023/12/20 02:39:51;;;;;;;0.80;0.47;;;;;;;-143.84;58.64;45191.88;5048755;28;20441;-59
2023/12/20 02:42:18;;;;;;;1.10;0.70;;;;;;;-143.84;58.04;45178.56;5048841;28;20441;-59
2023/12/20 02:44:45;;;;;;;3.43;0.93;;;;;;;-143.84;57.82;45174.75;5048594;28;20464;-59
2023/12/20 02:47:12;;;;;;;1.00;0.90;;;;;;;-143.84;57.66;45193.78;5048690;28;20493;-59
2023/12/20 02:49:40;;;;;;;1.00;0.90;;;;;;;-143.84;56.91;45184.25;5048931;28;20468;-59
2023/12/20 02:52:07;;;;;;;1.17;1.07;;;;;;;-143.84;57.61;45176.66;5049007;28;20445;-59
2023/12/20 02:54:34;;;;;;;1.23;0.90;;;;;;;-143.84;58.90;45146.19;5048393;28;20493;-59
2023/12/20 02:57:02;;;;;;;1.17;0.70;;;;;;;-143.84;59.41;45170.94;5048644;28;20487;-59
2023/12/20 02:59:30;;;;;;;1.13;1.03;;;;;;;-143.84;59.52;45193.78;5048565;28;20438;-59
2023/12/20 03:01:57;;;;;;;0.80;0.50;;;;;;;-143.84;59.47;45186.16;5048388;28;20969;-59
2023/12/20 03:04:24;;;;;;;0.80;0.50;;;;;;;-143.84;59.95;45176.66;5048732;28;20519;-58
2023/12/20 03:06:51;;;;;;;0.80;0.70;;;;;;;-143.84;59.89;45180.47;5048462;28;20478;-59
2023/12/20 03:09:18;;;;;;;0.80;0.60;;;;;;;-143.84;59.83;45148.09;5048657;28;20503;-59
2023/12/20 03:11:45;;;;;;;1.00;0.70;;;;;;;-143.84;60.20;45184.25;5048439;28;20450;-59
2023/12/20 03:14:14;;;;;;;0.90;0.63;;;;;;;-143.84;59.30;45176.66;5048471;28;20468;-58
2023/12/20 03:16:41;;;;;;;0.80;0.50;;;;;;;-143.84;58.86;45186.16;5048591;28;20498;-59
2023/12/20 03:19:08;;;;;;;1.20;0.93;;;;;;;-143.84;58.64;45201.41;5048098;28;20437;-59
2023/12/20 03:21:35;;;;;;;2.80;1.00;;;;;;;-143.84;57.75;45188.06;5048253;28;20441;-59
2023/12/20 03:24:02;;;;;;;6.43;1.47;;;;;;;-143.84;56.50;45161.41;5048381;28;20445;-59
2023/12/20 03:26:29;;;;;;;0.90;0.80;;;;;;;-143.84;56.03;45184.25;5048291;28;20822;-59
2023/12/20 03:28:58;;;;;;;1.73;0.60;;;;;;;-143.84;55.69;45180.47;5048288;28;20545;-59
2023/12/20 03:31:27;;;;;;;0.80;0.70;;;;;;;-143.84;55.33;45178.56;5048101;28;20943;-59
2023/12/20 03:33:54;;;;;;;1.00;0.67;;;;;;;-143.84;58.15;45197.59;5048433;28;20520;-59
2023/12/20 03:36:21;;;;;;;0.90;0.80;;;;;;;-143.84;64.57;45167.13;5047825;28;20442;-58
2023/12/20 03:38:48;;;;;;;1.00;0.80;;;;;;;-143.84;66.29;45180.47;5048042;28;20494;-59
2023/12/20 03:41:15;;;;;;;1.10;0.70;;;;;;;-143.84;66.57;45167.13;5048246;28;20450;-59
2023/12/20 03:43:42;;;;;;;2.27;1.60;;;;;;;-143.84;67.99;45161.41;5050839;28;21023;-58
2023/12/20 03:46:10;;;;;;;0.80;0.50;;;;;;;-143.84;68.23;45150.00;5051665;28;20506;-58
2023/12/20 03:48:38;;;;;;;3.07;0.70;;;;;;;-143.84;66.18;45174.75;5051685;28;20495;-58
2023/12/20 03:51:06;;;;;;;0.80;0.50;;;;;;;-143.84;63.07;45195.69;5051462;28;20442;-58
2023/12/20 03:53:33;;;;;;;2.07;1.97;;;;;;;-143.84;63.11;45172.84;5051485;28;20522;-59
2023/12/20 03:56:00;;;;;;;0.90;0.70;;;;;;;-143.84;63.27;45178.56;5051453;28;20896;-59
2023/12/20 03:58:27;;;;;;;0.90;0.63;;;;;;;-143.84;61.72;45189.97;5051578;28;20500;-59
2023/12/20 04:00:54;;;;;;;0.87;0.60;;;;;;;-143.84;60.37;45163.31;5051499;28;20450;-58
2023/12/20 04:03:21;;;;;;;6.83;1.23;;;;;;;-143.84;60.30;45184.25;5051508;28;20455;-58
2023/12/20 04:05:50;;;;;;;0.80;0.50;;;;;;;-143.84;60.42;45163.31;5051269;28;20441;-59
2023/12/20 04:08:17;;;;;;;0.90;0.67;;;;;;;-143.84;60.75;45184.25;5051216;28;20837;-59
2023/12/20 04:10:44;;;;;;;0.90;0.63;;;;;;;-143.84;60.54;45167.13;5051339;28;20448;-58
2023/12/20 04:13:11;;;;;;;0.80;0.50;;;;;;;-143.84;61.09;45174.75;5051220;28;20444;-59
2023/12/20 04:15:38;;;;;;;2.00;1.90;;;;;;;-143.84;60.47;45136.66;5051272;28;20845;-59
2023/12/20 04:18:06;;;;;;;6.77;0.90;;;;;;;-143.84;60.18;45180.47;5051038;28;20441;-59
2023/12/20 04:20:33;;;;;;;1.07;0.60;;;;;;;-143.84;59.32;45169.03;5051060;28;20437;-59
2023/12/20 04:23:01;;;;;;;0.90;0.80;;;;;;;-143.84;58.86;45161.41;5051249;28;20858;-59
2023/12/20 04:25:28;;;;;;;1.23;0.80;;;;;;;-143.84;59.04;45180.47;5051218;28;20454;-59
2023/12/20 04:27:55;;;;;;;0.90;0.63;;;;;;;-143.84;59.33;45188.06;5051075;28;20557;-59
2023/12/20 04:30:22;;;;;;;1.27;1.17;;;;;;;-143.84;60.07;45176.66;5051169;28;21141;-59
2023/12/20 04:32:50;;;;;;;0.80;0.53;;;;;;;-143.84;60.87;45165.22;5039795;28;20820;-58
2023/12/20 04:35:17;;;;;;;0.80;0.50;;;;;;;-143.84;60.24;45153.81;5030831;28;20458;-59
2023/12/20 04:37:44;;;;;;;1.63;1.53;;;;;;;-143.84;60.84;45197.59;5030696;28;20450;-59
2023/12/20 04:40:13;;;;;;;0.80;0.50;;;;;;;-143.84;61.06;45150.00;5030373;28;20476;-58
2023/12/20 04:42:40;;;;;;;0.80;0.60;;;;;;;-143.84;61.88;45167.13;5030940;28;20435;-58
2023/12/20 04:45:08;;;;;;;0.80;0.50;;;;;;;-143.84;62.76;45176.66;5030732;28;20441;-58
2023/12/20 04:47:35;;;;;;;0.80;0.63;;;;;;;-143.84;62.89;45195.69;5030897;28;20542;-59
2023/12/20 04:50:02;;;;;;;1.57;0.80;;;;;;;-143.84;62.81;45189.97;5030967;28;20515;-58
2023/12/20 04:52:29;;;;;;;0.80;0.63;;;;;;;-143.84;62.76;45176.66;5030712;28;21222;-59
2023/12/20 04:54:56;;;;;;;4.60;2.13;;;;;;;-143.84;63.00;45159.50;5047590;28;20492;-59
2023/12/20 04:57:25;;;;;;;1.63;1.53;;;;;;;-143.84;62.89;45146.19;5050808;28;20513;-59
2023/12/20 04:59:52;;;;;;;0.80;0.40;;;;;;;-143.84;62.83;45207.13;5050391;28;20506;-58
2023/12/20 05:02:19;;;;;;;0.90;0.60;;;;;;;-143.84;62.80;45174.75;5050371;28;20442;-58
2023/12/20 05:04:46;;;;;;;2.50;0.70;;;;;;;-143.84;62.33;45195.69;5050310;28;20437;-58
2023/12/20 05:07:13;;;;;;;2.10;2.00;;;;;;;-143.84;61.76;45178.56;5050225;28;20492;-59
2023/12/20 05:09:41;;;;;;;0.80;0.50;;;;;;;-143.84;61.88;45165.22;5050298;28;21015;-58
2023/12/20 05:12:08;;;;;;;0.93;0.77;;;;;;;-143.84;62.02;45178.56;5050295;28;20985;-59
2023/12/20 05:14:37;;;;;;;1.10;0.87;;;;;;;-143.84;61.58;45167.13;5050004;28;20441;-58
2023/12/20 05:17:04;;;;;;;0.93;0.70;;;;;;;-143.84;61.28;45189.97;5049957;28;20442;-58
2023/12/20 05:19:34;;;;;;;2.10;1.13;;;;;;;-143.84;60.99;45167.13;5050168;28;20525;-59
2023/12/20 05:22:02;;;;;;;1.57;1.20;;;;;;;-143.84;60.95;45174.75;5049836;28;20436;-58
2023/12/20 05:24:29;;;;;;;4.00;0.83;;;;;;;-143.84;60.72;45163.31;5049906;28;20938;-59
2023/12/20 05:26:56;;;;;;;1.60;1.50;;;;;;;-143.84;61.08;45169.03;5049158;28;20492;-59
2023/12/20 05:29:24;;;;;;;1.00;0.90;;;;;;;-143.84;60.67;45167.13;5049740;28;20943;-58
2023/12/20 05:31:52;;;;;;;1.07;0.97;;;;;;;-143.84;61.12;45178.56;5029871;28;20503;-58
2023/12/20 05:34:20;;;;;;;1.30;1.20;;;;;;;-143.84;61.64;45191.88;5029861;28;20857;-59
2023/12/20 05:36:47;;;;;;;0.90;0.70;;;;;;;-143.84;62.88;45142.38;5029763;28;20501;-59
2023/12/20 05:39:14;;;;;;;0.90;0.70;;;;;;;-143.84;63.25;45180.47;5029787;28;20442;-58
2023/12/20 05:41:41;;;;;;;0.90;0.70;;;;;;;-143.84;63.65;45180.47;5029452;28;20857;-59
2023/12/20 05:44:08;;;;;;;0.93;0.77;;;;;;;-143.84;64.20;45151.91;5048593;28;20511;-58
2023/12/20 05:46:35;;;;;;;0.97;0.83;;;;;;;-143.84;64.61;45188.06;5049168;28;20438;-59
2023/12/20 05:49:04;;;;;;;1.33;1.23;;;;;;;-143.84;65.33;45163.31;5049676;28;20441;-59
2023/12/20 05:51:31;;;;;;;1.87;0.80;;;;;;;-143.84;65.41;45163.31;5049467;28;20932;-58
2023/12/20 05:53:58;;;;;;;2.90;2.50;;;;;;;-143.84;65.31;45161.41;5049354;28;20485;-58
2023/12/20 05:56:25;;;;;;;1.03;0.93;;;;;;;-143.84;65.88;45184.25;5049333;28;20443;-58
2023/12/20 05:58:52;;;;;;;1.40;1.23;;;;;;;-143.84;66.13;45163.31;5049408;28;20437;-58
2023/12/20 06:01:20;;;;;;;0.93;0.83;;;;;;;-143.84;66.71;45186.16;5049211;28;20453;-58
2023/12/20 06:03:47;;;;;;;2.77;2.57;;;;;;;-143.84;68.01;45180.47;5049247;28;20438;-58
2023/12/20 06:06:15;;;;;;;0.80;0.50;;;;;;;-143.84;68.80;45178.56;5049165;28;20507;-58
2023/12/20 06:08:43;;;;;;;1.17;1.07;;;;;;;-143.84;69.48;45161.41;5049310;28;20512;-58
2023/12/20 06:11:10;;;;;;;1.73;1.03;;;;;;;-143.84;70.14;45189.97;5048964;28;20531;-58
2023/12/20 06:13:37;;;;;;;2.07;0.90;;;;;;;-143.84;70.86;45170.94;5048891;28;20449;-59
2023/12/20 06:16:06;;;;;;;6.60;1.97;;;;;;;-143.84;71.63;45174.75;5048954;28;20437;-58
2023/12/20 06:18:33;;;;;;;1.53;0.77;;;;;;;-143.84;73.35;45186.16;5048955;28;20947;-58
2023/12/20 06:21:00;;;;;;;1.57;1.23;;;;;;;-143.84;73.08;45165.22;5048748;28;20515;-58
2023/12/20 06:23:29;;;;;;;1.00;0.80;;;;;;;-143.84;72.85;45172.84;5048924;28;20794;-58
2023/12/20 06:25:56;;;;;;;0.90;0.80;;;;;;;-143.84;72.12;45180.47;5049137;28;20508;-58
2023/12/20 06:28:24;;;;;;;0.80;0.50;;;;;;;-143.84;71.41;45153.81;5049138;28;20472;-58
2023/12/20 06:30:52;;;;;;;0.87;0.70;;;;;;;-143.84;71.16;45180.47;5048865;28;20442;-58
2023/12/20 06:33:21;;;;;;;1.10;0.77;;;;;;;-143.84;70.38;45188.06;5048834;28;20940;-58
2023/12/20 06:35:48;;;;;;;0.90;0.80;;;;;;;-143.84;70.36;45170.94;5048708;28;20453;-58
2023/12/20 06:38:15;;;;;;;0.80;0.50;;;;;;;-143.84;69.54;45186.16;5048200;28;20511;-58
2023/12/20 06:40:44;;;;;;;1.43;1.17;;;;;;;-143.84;68.46;45174.75;5047526;28;20438;-58
2023/12/20 06:43:11;;;;;;;2.90;1.27;;;;;;;-143.84;67.81;45170.94;5047615;28;20484;-58
2023/12/20 06:45:38;;;;;;;0.97;0.83;;;;;;;-143.84;67.38;45174.75;5048229;28;20449;-58
2023/12/20 06:48:06;;;;;;;0.90;0.70;;;;;;;-143.84;66.61;45191.88;5048072;28;20995;-59
2023/12/20 06:50:33;;;;;;;3.83;0.90;;;;;;;-143.84;66.50;45186.16;5047886;28;20438;-59
2023/12/20 06:53:06;;;;;;;0.97;0.70;;;;;;;-143.84;66.57;45188.06;5048160;28;20441;-58
2023/12/20 06:55:34;;;;;;;0.90;0.70;;;;;;;-143.84;66.87;45151.91;5048387;28;20508;-58
2023/12/20 06:58:02;;;;;;;1.10;0.93;;;;;;;-143.84;66.72;45165.22;5048419;28;20446;-58
2023/12/20 07:00:30;;;;;;;1.30;1.07;;;;;;;-143.84;67.50;45159.50;5048455;28;20504;-58
2023/12/20 07:02:57;;;;;;;0.90;0.60;;;;;;;-143.84;67.33;45155.69;5048283;28;20487;-58
2023/12/20 07:05:24;;;;;;;0.97;0.87;;;;;;;-143.84;65.85;45157.59;5048223;28;21024;-58
2023/12/20 07:07:51;;;;;;;1.30;0.93;;;;;;;-143.84;64.14;45178.56;5048351;28;21059;-58
2023/12/20 07:10:18;;;;;;;1.60;1.27;;;;;;;-143.84;62.29;45136.66;5048231;28;20442;-58
2023/12/20 07:12:45;;;;;;;0.80;0.50;;;;;;;-143.84;61.21;45184.25;5048467;28;20909;-58
2023/12/20 07:15:14;;;;;;;2.67;1.20;;;;;;;-143.84;62.24;45134.75;5048317;28;20442;-58
2023/12/20 07:17:41;;;;;;;0.80;0.60;;;;;;;-143.84;60.59;45163.31;5049197;28;20508;-58
2023/12/20 07:20:10;;;;;;;1.20;1.10;;;;;;;-143.84;59.14;45163.31;5052386;28;20922;-58
2023/12/20 07:22:37;;;;;;;1.00;0.83;;;;;;;-143.84;57.48;45155.69;5052105;28;20503;-58
2023/12/20 07:25:05;;;;;;;1.00;0.90;;;;;;;-143.84;58.10;45148.09;5052071;28;20453;-58
2023/12/20 07:27:33;;;;;;;2.10;1.90;;;;;;;-143.84;55.83;45153.81;5051976;28;20539;-58
2023/12/20 07:30:00;;;;;;;4.50;4.10;;;;;;;-143.84;53.57;45150.00;5052191;28;20468;-58
2023/12/20 07:32:29;;;;;;;1.33;1.17;;;;;;;-143.84;51.69;45155.69;5052061;28;20442;-57
2023/12/20 07:34:56;;;;;;;3.57;2.47;;;;;;;-143.84;50.61;45153.81;5052053;28;20502;-57
2023/12/20 07:37:23;;;;;;;3.40;3.10;;;;;;;-143.84;48.63;45134.75;5051792;28;20997;-57
2023/12/20 07:39:50;;;;;;;3.60;1.70;;;;;;;-143.84;48.34;45170.94;5051875;28;20532;-57
2023/12/20 07:42:18;;;;;;;1.37;0.90;;;;;;;-143.84;49.33;45132.84;5051488;28;20500;-57
2023/12/20 07:44:45;;;;;;;1.20;1.10;;;;;;;-143.84;47.65;45151.91;5051644;28;20503;-57
2023/12/20 07:47:15;;;;;;;0.90;0.70;;;;;;;-143.84;46.43;45140.47;5051464;28;20491;-57
2023/12/20 07:49:44;;;;;;;1.17;1.00;;;;;;;-143.84;47.77;45136.66;5051723;28;20926;-57
2023/12/20 07:52:11;;;;;;;3.20;0.80;;;;;;;-143.84;47.39;45134.75;5051433;28;20491;-57
2023/12/20 07:54:38;;;;;;;1.03;0.93;;;;;;;-143.84;45.73;45159.50;5051191;28;20485;-57
2023/12/20 07:57:05;;;;;;;3.20;1.57;;;;;;;-143.84;45.15;45140.47;5051242;28;20795;-57
2023/12/20 07:59:33;;;;;;;1.67;0.97;;;;;;;-143.84;45.64;45127.13;5051280;28;20449;-57
2023/12/20 08:02:00;;;;;;;5.00;1.60;;;;;;;-143.84;45.34;45125.22;5051622;28;20446;-57
2023/12/20 08:04:27;;;;;;;2.07;1.40;;;;;;;-143.84;43.89;45125.22;5051422;28;20491;-57
2023/12/20 08:06:55;;;;;;;1.30;1.20;;;;;;;-143.84;43.64;45151.91;5051381;28;20492;-57
2023/12/20 08:09:22;;;;;;;1.33;1.00;;;;;;;-143.84;44.00;45125.22;5051248;28;20489;-57
2023/12/20 08:11:50;;;;;;;1.10;0.70;;;;;;;-143.84;43.64;45134.75;5050936;28;20503;-57
2023/12/20 08:14:17;;;;;;;3.00;1.23;;;;;;;-143.84;43.53;45134.75;5051388;28;20434;-57
2023/12/20 08:16:44;;;;;;;2.70;1.17;;;;;;;-143.84;43.12;45115.72;5050951;28;20450;-57
2023/12/20 08:19:12;;;;;;;1.07;0.90;;;;;;;-143.84;42.86;45132.84;5051071;28;20859;-57
2023/12/20 08:21:39;;;;;;;2.13;1.60;;;;;;;-143.84;43.13;45142.38;5050833;28;20485;-57
2023/12/20 08:24:09;;;;;;;1.30;0.80;;;;;;;-143.84;42.03;45129.03;5051104;28;20434;-57
2023/12/20 08:26:36;;;;;;;1.17;0.77;;;;;;;-143.84;42.76;45115.72;5050827;28;20928;-57
2023/12/20 08:29:03;;;;;;;1.00;0.87;;;;;;;-143.84;42.82;45127.13;5049747;28;20473;-57
2023/12/20 08:31:31;;;;;;;1.00;0.87;;;;;;;-143.84;40.95;45113.81;5050963;28;21013;-57
2023/12/20 08:33:58;;;;;;;1.10;0.83;;;;;;;-143.84;41.05;45111.91;5050728;28;20437;-57
2023/12/20 08:36:25;;;;;;;1.00;0.80;;;;;;;-143.84;42.55;45115.72;5050906;28;20510;-57
2023/12/20 08:38:52;;;;;;;0.80;0.50;;;;;;;-143.84;39.88;45106.19;5050480;28;20445;-57
2023/12/20 08:41:21;;;;;;;1.03;0.93;;;;;;;-143.84;40.12;45134.75;5050486;28;20503;-57
2023/12/20 08:43:48;;;;;;;1.63;1.53;;;;;;;-143.84;39.56;45115.72;5050463;28;21027;-57
2023/12/20 08:46:16;;;;;;;1.57;1.00;;;;;;;-143.84;38.88;45129.03;5050642;28;20545;-58
2023/12/20 08:48:43;;;;;;;1.37;1.03;;;;;;;-143.84;39.89;45125.22;5050578;28;20485;-57
2023/12/20 08:51:11;;;;;;;0.87;0.57;;;;;;;-143.84;38.16;45104.28;5050355;28;20454;-58
2023/12/20 08:53:38;;;;;;;0.90;0.60;;;;;;;-143.84;39.59;45098.56;5050453;28;20459;-58
2023/12/20 08:56:06;;;;;;;4.83;1.20;;;;;;;-143.84;39.18;45096.66;5050470;28;20445;-57
2023/12/20 08:58:35;;;;;;;0.87;0.57;;;;;;;-143.84;38.88;45123.34;5050550;28;20446;-57
2023/12/20 09:01:03;;;;;;;5.63;0.80;;;;;;;-143.84;39.06;45110.00;5050242;28;20484;-57
2023/12/20 09:03:30;;;;;;;1.20;1.03;;;;;;;-143.84;39.15;45098.56;5050295;28;20808;-58
2023/12/20 09:05:57;;;;;;;1.30;1.00;;;;;;;-143.84;39.54;45123.34;5050085;28;20457;-59
2023/12/20 09:08:24;;;;;;;1.20;1.10;;;;;;;-143.84;39.02;45110.00;5050083;28;20535;-59
2023/12/20 09:10:51;;;;;;;0.90;0.60;;;;;;;-143.84;39.52;45106.19;5049588;28;20951;-59
2023/12/20 09:13:18;;;;;;;0.90;0.67;;;;;;;-143.84;38.69;45110.00;5050005;28;20495;-59
2023/12/20 09:15:47;;;;;;;0.80;0.50;;;;;;;-143.84;39.22;45123.34;5049993;28;20449;-59
2023/12/20 09:18:14;;;;;;;0.80;0.53;;;;;;;-143.84;38.28;45123.34;5049857;28;20446;-59
2023/12/20 09:20:41;;;;;;;0.90;0.50;;;;;;;-143.84;38.99;45113.81;5049747;28;20468;-59
2023/12/20 09:23:08;;;;;;;1.43;0.60;;;;;;;-143.84;38.77;45110.00;5049843;28;20454;-59
2023/12/20 09:25:35;;;;;;;1.80;0.70;;;;;;;-143.84;38.50;45106.19;5049545;28;20441;-59
2023/12/20 09:28:02;;;;;;;1.43;1.33;;;;;;;-143.84;38.75;45108.09;5049573;28;20559;-59
2023/12/20 09:30:30;;;;;;;1.57;1.03;;;;;;;-143.84;38.61;45104.28;5049705;28;20446;-59
2023/12/20 09:32:58;;;;;;;3.13;0.97;;;;;;;-143.84;38.68;45121.44;5049701;28;20542;-59
2023/12/20 09:35:26;;;;;;;1.10;0.80;;;;;;;-143.84;38.58;45098.56;5049781;28;20887;-59
2023/12/20 09:37:53;;;;;;;0.80;0.47;;;;;;;-143.84;38.12;45117.63;5049335;28;20503;-59
2023/12/20 09:40:21;;;;;;;1.40;1.17;;;;;;;-143.84;37.92;45110.00;5049256;28;20438;-59
2023/12/20 09:42:52;;;;;;;1.00;0.63;;;;;;;-143.84;38.35;45123.34;5049466;28;20438;-59
2023/12/20 09:45:22;;;;;;;0.80;0.50;;;;;;;-143.84;38.20;45127.13;5049422;28;20449;-58
2023/12/20 09:47:50;;;;;;;0.80;0.40;;;;;;;-143.84;38.40;45111.91;5049450;28;21315;-59
2023/12/20 09:50:20;;;;;;;1.00;0.83;;;;;;;-143.84;37.88;45085.25;5049285;28;20438;-58
2023/12/20 09:52:50;;;;;;;0.80;0.60;;;;;;;-143.84;38.21;45068.13;5049435;28;21150;-58
2023/12/20 09:55:19;;;;;;;0.90;0.70;;;;;;;-143.84;38.01;45090.97;5048919;28;20496;-58
2023/12/20 09:57:47;;;;;;;1.33;0.60;;;;;;;-143.84;37.61;45094.78;5049074;28;20441;-58
2023/12/20 10:00:16;;;;;;;0.97;0.83;;;;;;;-143.84;38.38;45090.97;5048703;28;20433;-58
2023/12/20 10:03:00;;;;;;;1.33;1.23;;;;;;;-143.84;38.32;45106.19;5049237;28;20464;-58
2023/12/20 10:05:30;;;;;;;1.40;0.87;;;;;;;-143.84;37.75;45073.81;5049093;28;20434;-58
2023/12/20 10:07:57;;;;;;;1.00;0.70;;;;;;;-143.84;37.00;45094.78;5048656;28;20461;-58
2023/12/20 10:10:25;;;;;;;2.57;0.83;;;;;;;-143.84;37.51;45081.44;5049002;28;20935;-58
2023/12/20 10:13:06;;;;;;;0.90;0.80;;;;;;;-143.84;36.59;45096.66;5048694;28;21033;-58
2023/12/20 10:15:34;;;;;;;0.90;0.80;;;;;;;-143.84;36.61;45111.91;5048962;28;20446;-58
2023/12/20 10:18:02;;;;;;;1.70;1.57;;;;;;;-143.84;37.09;45079.53;5048921;28;20824;-58
2023/12/20 10:20:31;;;;;;;2.10;1.47;;;;;;;-143.84;37.53;45077.63;5048956;28;20441;-58
2023/12/20 10:22:59;;;;;;;1.37;0.80;;;;;;;-143.84;38.82;45117.63;5048796;28;20503;-58
2023/12/20 10:25:27;;;;;;;1.03;0.70;;;;;;;-143.84;37.68;45110.00;5048354;28;20468;-58
2023/12/20 10:28:12;;;;;;;1.07;0.97;;;;;;;-143.84;37.81;45092.88;5048681;28;20896;-58
2023/12/20 10:30:40;;;;;;;1.00;0.90;;;;;;;-143.84;38.04;45100.47;5048787;28;20811;-58
2023/12/20 10:33:08;;;;;;;0.90;0.70;;;;;;;-143.84;38.55;45092.88;5048602;28;20441;-58
2023/12/20 10:35:37;;;;;;;1.87;1.00;;;;;;;-143.84;39.34;45098.56;5048398;28;20551;-58
2023/12/20 10:38:06;;;;;;;5.53;1.13;;;;;;;-143.84;39.77;45094.78;5048433;28;20441;-58
2023/12/20 10:40:37;;;;;;;1.10;1.00;;;;;;;-143.84;39.96;45087.16;5048511;28;20512;-58
2023/12/20 10:43:05;;;;;;;0.80;0.50;;;;;;;-143.84;37.92;45115.72;5048457;28;20456;-58
2023/12/20 10:45:32;;;;;;;0.90;0.63;;;;;;;-143.84;38.31;45102.38;5048569;28;20855;-58
2023/12/20 10:48:00;;;;;;;0.90;0.70;;;;;;;-143.84;37.89;45117.63;5048348;28;20480;-58
2023/12/20 10:50:29;;;;;;;0.80;0.60;;;;;;;-143.84;39.12;45104.28;5048276;28;20915;-58
2023/12/20 10:52:58;;;;;;;2.40;1.00;;;;;;;-143.84;38.34;45085.25;5047523;28;20879;-58
2023/12/20 10:55:26;;;;;;;0.90;0.70;;;;;;;-143.84;38.49;45110.00;5048545;28;20512;-58
2023/12/20 10:57:55;;;;;;;1.00;0.90;;;;;;;-143.84;39.05;45092.88;5048561;28;21404;-58
2023/12/20 11:00:25;;;;;;;1.17;1.07;;;;;;;-143.84;39.74;45081.44;5048288;28;20849;-58
2023/12/20 11:02:54;;;;;;;1.77;1.23;;;;;;;-143.84;38.41;45081.44;5048322;28;20445;-58
2023/12/20 11:05:29;;;;;;;0.90;0.60;;;;;;;-143.84;38.61;45110.00;5048488;28;20535;-58
2023/12/20 11:08:04;;;;;;;1.00;0.60;;;;;;;-143.84;37.97;45079.53;5048198;28;20441;-58
2023/12/20 11:10:39;;;;;;;1.20;1.03;;;;;;;-143.84;39.10;45089.06;5048230;28;20567;-58
2023/12/20 11:13:11;;;;;;;1.23;1.13;;;;;;;-143.84;39.48;45100.47;5047446;28;20433;-58
2023/12/20 11:15:38;;;;;;;1.93;1.27;;;;;;;-143.84;39.22;45102.38;5047311;28;20940;-58
2023/12/20 11:18:07;;;;;;;1.30;1.03;;;;;;;-143.84;38.70;45070.00;5047958;28;20445;-58
2023/12/20 11:20:38;;;;;;;1.10;1.00;;;;;;;-143.84;39.11;45081.44;5047230;28;20444;-58